createdAt,value
2023-01-28T00:00:13.660Z,-4.17
2023-01-28T00:02:41.779Z,-4.18
2023-01-28T00:05:10.978Z,-4.16
2023-01-28T00:07:40.318Z,-4.11
2023-01-28T00:10:09.699Z,-4.10
2023-01-28T00:12:38.614Z,-4.09
2023-01-28T00:15:07.933Z,-4.09
2023-01-28T00:17:37.318Z,-4.09
2023-01-28T00:20:06.504Z,-4.08
2023-01-28T00:22:36.296Z,-4.08
2023-01-28T00:25:05.396Z,-4.10
2023-01-28T00:27:33.672Z,-4.10
2023-01-28T00:30:02.030Z,-4.09
2023-01-28T00:32:30.780Z,-4.07
2023-01-28T00:34:59.263Z,-4.08
2023-01-28T00:37:28.057Z,-4.08
2023-01-28T00:39:56.484Z,-4.08
2023-01-28T00:42:26.041Z,-4.07
2023-01-28T00:44:57.298Z,-4.07
2023-01-28T00:47:25.567Z,-4.05
2023-01-28T00:49:54.410Z,-4.03
2023-01-28T00:52:24.787Z,-4.00
2023-01-28T00:54:53.201Z,-3.98
2023-01-28T00:57:21.547Z,-3.97
2023-01-28T00:59:50.659Z,-3.98
2023-01-28T01:02:19.272Z,-3.98
2023-01-28T01:04:58.583Z,-3.99
2023-01-28T01:07:32.487Z,-3.99
2023-01-28T01:10:01.791Z,-3.99
2023-01-28T01:12:31.290Z,-3.99
2023-01-28T01:15:00.106Z,-3.99
2023-01-28T01:17:31.811Z,-3.98
2023-01-28T01:20:00.533Z,-3.99
2023-01-28T01:22:31.367Z,-3.99
2023-01-28T01:24:59.740Z,-3.98
2023-01-28T01:27:28.147Z,-3.98
2023-01-28T01:29:56.716Z,-3.96
2023-01-28T01:32:29.797Z,-3.94
2023-01-28T01:34:58.487Z,-3.91
2023-01-28T01:37:27.691Z,-3.88
2023-01-28T01:39:58.077Z,-3.85
2023-01-28T01:42:26.292Z,-3.84
2023-01-28T01:45:01.207Z,-3.87
2023-01-28T01:47:36.571Z,-3.93
2023-01-28T01:50:10.028Z,-3.97
2023-01-28T01:52:38.367Z,-4.00
2023-01-28T01:55:10.433Z,-4.04
2023-01-28T01:57:41.972Z,-4.05
2023-01-28T02:00:11.396Z,-4.07
2023-01-28T02:02:45.389Z,-4.08
2023-01-28T02:05:15.335Z,-4.08
2023-01-28T02:07:43.813Z,-4.07
2023-01-28T02:10:12.444Z,-4.06
2023-01-28T02:12:43.995Z,-4.05
2023-01-28T02:15:18.263Z,-4.06
2023-01-28T02:17:47.173Z,-4.08
2023-01-28T02:20:25.076Z,-4.11
2023-01-28T02:23:25.268Z,-4.12
2023-01-28T02:26:22.232Z,-4.11
2023-01-28T02:28:56.379Z,-4.09
2023-01-28T02:31:34.921Z,-4.08
2023-01-28T02:34:17.262Z,-4.07
2023-01-28T02:36:53.743Z,-4.05
2023-01-28T02:39:28.563Z,-4.05
2023-01-28T02:41:59.505Z,-4.06
2023-01-28T02:44:28.132Z,-4.06
2023-01-28T02:47:15.011Z,-4.05
2023-01-28T02:49:49.732Z,-4.05
2023-01-28T02:53:17.817Z,-4.04
2023-01-28T02:56:05.246Z,-4.05
2023-01-28T02:58:36.286Z,-4.09
2023-01-28T03:01:07.539Z,-4.12
2023-01-28T03:03:47.391Z,-4.13
2023-01-28T03:06:18.324Z,-4.12
2023-01-28T03:09:09.253Z,-4.10
2023-01-28T03:12:01.137Z,-4.07
2023-01-28T03:14:49.415Z,-4.05
2023-01-28T03:17:46.668Z,-4.03
2023-01-28T03:20:35.431Z,-4.00
2023-01-28T03:23:29.412Z,-3.96
2023-01-28T03:26:17.785Z,-3.94
2023-01-28T03:29:05.390Z,-3.92
2023-01-28T03:31:52.401Z,-3.95
2023-01-28T03:34:40.212Z,-3.96
2023-01-28T03:37:09.244Z,-3.97
2023-01-28T03:39:42.035Z,-3.99
2023-01-28T03:42:13.961Z,-4.01
2023-01-28T03:45:08.203Z,-4.01
2023-01-28T03:47:37.594Z,-4.02
2023-01-28T03:50:07.318Z,-4.03
2023-01-28T03:52:42.975Z,-4.04
2023-01-28T03:55:26.028Z,-4.04
2023-01-28T03:57:54.863Z,-4.05
2023-01-28T04:00:23.553Z,-4.05
2023-01-28T04:02:52.072Z,-4.04
2023-01-28T04:05:22.866Z,-4.04
2023-01-28T04:07:56.187Z,-4.04
2023-01-28T04:10:54.865Z,-4.04
2023-01-28T04:13:30.811Z,-4.04
2023-01-28T04:16:03.706Z,-4.04
2023-01-28T04:18:36.789Z,-4.04
2023-01-28T04:21:06.217Z,-4.04
2023-01-28T04:23:35.803Z,-4.04
2023-01-28T04:26:05.230Z,-4.05
2023-01-28T04:28:34.511Z,-4.04
2023-01-28T04:31:03.183Z,-4.03
2023-01-28T04:33:44.272Z,-4.03
2023-01-28T04:36:27.094Z,-4.03
2023-01-28T04:39:26.000Z,-4.02
2023-01-28T04:42:11.295Z,-3.99
2023-01-28T04:45:02.598Z,-3.98
2023-01-28T04:47:51.051Z,-3.99
2023-01-28T04:50:35.295Z,-3.97
2023-01-28T04:53:17.494Z,-3.93
2023-01-28T04:56:08.929Z,-3.89
2023-01-28T04:58:37.916Z,-3.84
2023-01-28T05:01:14.315Z,-3.82
2023-01-28T05:03:43.276Z,-3.79
2023-01-28T05:06:16.985Z,-3.77
2023-01-28T05:08:47.407Z,-3.75
2023-01-28T05:11:19.782Z,-3.74
2023-01-28T05:13:51.643Z,-3.74
2023-01-28T05:16:21.048Z,-3.75
2023-01-28T05:18:52.827Z,-3.75
2023-01-28T05:21:22.275Z,-3.77
2023-01-28T05:23:58.028Z,-3.78
2023-01-28T05:26:26.562Z,-3.80
2023-01-28T05:28:54.933Z,-3.81
2023-01-28T05:31:23.721Z,-3.80
2023-01-28T05:33:53.227Z,-3.78
2023-01-28T05:36:21.714Z,-3.78
2023-01-28T05:38:50.817Z,-3.79
2023-01-28T05:41:19.232Z,-3.78
2023-01-28T05:43:50.727Z,-3.76
2023-01-28T05:46:30.389Z,-3.76
2023-01-28T05:49:08.448Z,-3.79
2023-01-28T05:51:55.209Z,-3.80
2023-01-28T05:54:25.935Z,-3.79
2023-01-28T05:56:57.398Z,-3.79
2023-01-28T05:59:25.779Z,-3.80
2023-01-28T06:01:59.284Z,-3.82
2023-01-28T06:04:28.782Z,-3.83
2023-01-28T06:06:57.905Z,-3.83
2023-01-28T06:09:27.287Z,-3.82
2023-01-28T06:11:56.490Z,-3.83
2023-01-28T06:14:25.491Z,-3.83
2023-01-28T06:17:35.336Z,-3.83
2023-01-28T06:20:11.362Z,-3.82
2023-01-28T06:22:42.231Z,-3.81
2023-01-28T06:25:10.516Z,-3.78
2023-01-28T06:27:40.946Z,-3.76
2023-01-28T06:30:10.165Z,-3.76
2023-01-28T06:32:38.521Z,-3.79
2023-01-28T06:35:08.851Z,-3.81
2023-01-28T06:37:37.334Z,-3.79
2023-01-28T06:40:06.730Z,-3.76
2023-01-28T06:42:35.226Z,-3.75
2023-01-28T06:45:03.439Z,-3.74
2023-01-28T06:47:31.887Z,-3.72
2023-01-28T06:50:00.266Z,-3.69
2023-01-28T06:52:28.854Z,-3.66
2023-01-28T06:54:57.669Z,-3.64
2023-01-28T06:57:26.119Z,-3.62
2023-01-28T06:59:54.504Z,-3.60
2023-01-28T07:02:22.771Z,-3.59
2023-01-28T07:04:51.255Z,-3.59
2023-01-28T07:07:19.634Z,-3.57
2023-01-28T07:09:48.429Z,-3.56
2023-01-28T07:12:17.319Z,-3.58
2023-01-28T07:14:46.116Z,-3.61
2023-01-28T07:17:15.946Z,-3.66
2023-01-28T07:19:48.714Z,-3.70
2023-01-28T07:22:16.986Z,-3.75
2023-01-28T07:24:45.468Z,-3.78
2023-01-28T07:27:13.879Z,-3.80
2023-01-28T07:29:42.332Z,-3.83
2023-01-28T07:32:13.629Z,-3.85
2023-01-28T07:34:43.305Z,-3.90
2023-01-28T07:37:11.673Z,-3.95
2023-01-28T07:39:40.168Z,-3.98
2023-01-28T07:42:09.174Z,-4.00
2023-01-28T07:44:39.476Z,-3.97
2023-01-28T07:47:07.833Z,-3.91
2023-01-28T07:49:36.344Z,-3.85
2023-01-28T07:52:08.137Z,-3.83
2023-01-28T07:54:36.987Z,-3.83
2023-01-28T07:57:10.059Z,-3.84
2023-01-28T07:59:39.384Z,-3.89
2023-01-28T08:02:10.698Z,-3.92
2023-01-28T08:04:40.675Z,-3.94
2023-01-28T08:07:10.025Z,-3.95
2023-01-28T08:09:39.000Z,-3.97
2023-01-28T08:12:08.353Z,-3.99
2023-01-28T08:14:37.048Z,-4.01
2023-01-28T08:17:05.852Z,-4.03
2023-01-28T08:19:34.824Z,-4.04
2023-01-28T08:22:03.002Z,-4.06
2023-01-28T08:24:31.308Z,-4.09
2023-01-28T08:26:59.761Z,-4.08
2023-01-28T08:29:28.139Z,-4.07
2023-01-28T08:31:57.847Z,-4.07
2023-01-28T08:34:30.947Z,-4.05
2023-01-28T08:36:59.334Z,-4.05
2023-01-28T08:39:27.807Z,-4.04
2023-01-28T08:41:56.392Z,-4.05
2023-01-28T08:44:25.607Z,-4.07
2023-01-28T08:46:54.457Z,-4.09
2023-01-28T08:49:24.917Z,-4.13
2023-01-28T08:51:53.303Z,-4.14
2023-01-28T08:54:22.132Z,-4.13
2023-01-28T08:56:51.907Z,-4.17
2023-01-28T08:59:20.177Z,-4.19
2023-01-28T09:01:48.818Z,-4.23
2023-01-28T09:04:17.556Z,-4.30
2023-01-28T09:06:46.747Z,-4.33
2023-01-28T09:09:15.975Z,-4.35
2023-01-28T09:11:44.440Z,-4.42
2023-01-28T09:14:13.019Z,-4.47
2023-01-28T09:16:42.013Z,-4.54
2023-01-28T09:19:11.215Z,-4.57
2023-01-28T09:21:40.892Z,-4.59
2023-01-28T09:24:12.323Z,-4.61
2023-01-28T09:26:41.273Z,-4.59
2023-01-28T09:29:09.657Z,-4.58
2023-01-28T09:31:38.586Z,-4.57
2023-01-28T09:34:06.923Z,-4.50
2023-01-28T09:36:38.658Z,-4.45
2023-01-28T09:39:08.613Z,-4.38
2023-01-28T09:42:16.200Z,-4.33
2023-01-28T09:45:04.142Z,-4.32
2023-01-28T09:47:34.266Z,-4.33
2023-01-28T09:50:05.518Z,-4.36
2023-01-28T09:52:40.032Z,-4.42
2023-01-28T09:55:23.875Z,-4.42
2023-01-28T09:57:53.814Z,-4.40
2023-01-28T10:00:48.311Z,-4.37
2023-01-28T10:03:51.980Z,-4.29
2023-01-28T10:06:39.115Z,-4.17
2023-01-28T10:09:23.265Z,-4.07
2023-01-28T10:12:28.721Z,-4.02
2023-01-28T10:15:03.660Z,-3.99
2023-01-28T10:17:38.629Z,-3.99
2023-01-28T10:20:33.384Z,-4.01
2023-01-28T10:23:08.629Z,-3.96
2023-01-28T10:25:37.122Z,-3.89
2023-01-28T10:28:08.866Z,-3.84
2023-01-28T10:30:37.383Z,-3.79
2023-01-28T10:33:10.957Z,-3.70
2023-01-28T10:35:40.933Z,-3.60
2023-01-28T10:38:13.753Z,-3.56
2023-01-28T10:40:42.685Z,-3.49
2023-01-28T10:43:11.240Z,-3.41
2023-01-28T10:46:03.418Z,-3.36
2023-01-28T10:48:38.327Z,-3.35
2023-01-28T10:51:07.109Z,-3.35
2023-01-28T10:53:36.518Z,-3.32
2023-01-28T10:56:07.791Z,-3.26
2023-01-28T10:58:37.667Z,-3.24
2023-01-28T11:01:07.070Z,-3.21
2023-01-28T11:03:36.086Z,-3.10
2023-01-28T11:06:05.186Z,-2.91
2023-01-28T11:08:43.682Z,-2.68
2023-01-28T11:11:15.010Z,-2.49
2023-01-28T11:13:59.075Z,-2.37
2023-01-28T11:16:27.678Z,-2.35
2023-01-28T11:19:05.462Z,-2.30
2023-01-28T11:21:41.034Z,-2.14
2023-01-28T11:24:19.999Z,-1.92
2023-01-28T11:27:03.075Z,-1.70
2023-01-28T11:29:47.557Z,-1.23
2023-01-28T11:32:20.441Z,-0.78
2023-01-28T11:34:50.947Z,-0.22
2023-01-28T11:37:23.040Z,0.47
2023-01-28T11:40:26.369Z,1.04
2023-01-28T11:43:16.925Z,1.54
2023-01-28T11:46:20.360Z,2.01
2023-01-28T11:49:45.021Z,2.47
2023-01-28T11:52:21.092Z,2.27
2023-01-28T11:55:04.100Z,1.90
2023-01-28T11:57:46.918Z,1.63
2023-01-28T12:00:24.937Z,1.71
2023-01-28T12:03:03.873Z,1.92
2023-01-28T12:05:55.287Z,2.16
2023-01-28T12:08:38.812Z,2.47
2023-01-28T12:11:47.649Z,2.81
2023-01-28T12:14:41.423Z,3.36
2023-01-28T12:17:28.846Z,3.81
2023-01-28T12:20:00.265Z,3.89
2023-01-28T12:22:38.102Z,3.91
2023-01-28T12:25:15.899Z,3.88
2023-01-28T12:28:02.921Z,3.71
2023-01-28T12:30:47.132Z,3.46
2023-01-28T12:33:24.156Z,3.59
2023-01-28T12:36:26.940Z,3.72
2023-01-28T12:39:02.325Z,3.70
2023-01-28T12:41:42.993Z,3.73
2023-01-28T12:44:14.914Z,3.84
2023-01-28T12:46:52.598Z,3.86
2023-01-28T12:49:29.865Z,3.91
2023-01-28T12:52:19.377Z,3.99
2023-01-28T12:54:57.133Z,3.93
2023-01-28T12:57:33.338Z,4.01
2023-01-28T13:00:33.702Z,4.06
2023-01-28T13:03:14.275Z,4.08
2023-01-28T13:05:52.108Z,3.97
2023-01-28T13:08:24.051Z,3.71
2023-01-28T13:11:16.644Z,3.52
2023-01-28T13:13:51.550Z,3.31
2023-01-28T13:16:35.961Z,3.24
2023-01-28T13:19:08.392Z,3.18
2023-01-28T13:21:48.754Z,3.25
2023-01-28T13:24:32.014Z,3.45
2023-01-28T13:27:11.052Z,3.57
2023-01-28T13:29:39.944Z,3.50
2023-01-28T13:32:31.272Z,3.31
2023-01-28T13:35:04.797Z,3.22
2023-01-28T13:37:40.560Z,3.07
2023-01-28T13:40:14.521Z,3.01
2023-01-28T13:42:43.291Z,2.90
2023-01-28T13:45:23.348Z,2.76
2023-01-28T13:48:01.473Z,2.68
2023-01-28T13:50:38.643Z,2.57
2023-01-28T13:53:26.497Z,2.45
2023-01-28T13:55:57.128Z,2.33
2023-01-28T13:58:53.256Z,2.22
2023-01-28T14:02:11.511Z,2.11
2023-01-28T14:04:41.867Z,2.01
2023-01-28T14:07:19.637Z,1.91
2023-01-28T14:10:03.128Z,1.82
2023-01-28T14:12:57.258Z,1.71
2023-01-28T14:15:38.265Z,1.52
2023-01-28T14:18:15.503Z,1.24
2023-01-28T14:20:45.438Z,0.96
2023-01-28T14:23:18.928Z,0.73
2023-01-28T14:26:18.100Z,0.45
2023-01-28T14:28:48.986Z,0.10
2023-01-28T14:31:34.397Z,-0.17
2023-01-28T14:34:26.488Z,-0.41
2023-01-28T14:36:56.780Z,-0.67
2023-01-28T14:39:28.443Z,-0.89
2023-01-28T14:41:59.904Z,-1.05
2023-01-28T14:44:37.222Z,-1.21
2023-01-28T14:47:28.952Z,-1.37
2023-01-28T14:50:07.897Z,-1.51
2023-01-28T14:52:56.852Z,-1.64
2023-01-28T14:55:46.855Z,-1.76
2023-01-28T14:58:25.664Z,-1.89
2023-01-28T15:00:59.932Z,-2.02
2023-01-28T15:03:29.443Z,-2.13
2023-01-28T15:06:16.033Z,-2.23
2023-01-28T15:08:47.895Z,-2.35
2023-01-28T15:11:25.855Z,-2.46
2023-01-28T15:13:58.440Z,-2.56
2023-01-28T15:16:30.512Z,-2.65
2023-01-28T15:19:00.575Z,-2.73
2023-01-28T15:21:29.314Z,-2.80
2023-01-28T15:23:58.957Z,-2.88
2023-01-28T15:26:28.858Z,-2.94
2023-01-28T15:28:57.438Z,-3.00
2023-01-28T15:31:30.684Z,-3.06
2023-01-28T15:34:03.950Z,-3.11
2023-01-28T15:36:33.312Z,-3.16
2023-01-28T15:39:01.696Z,-3.21
2023-01-28T15:41:36.208Z,-3.25
2023-01-28T15:44:24.220Z,-3.29
2023-01-28T15:46:54.499Z,-3.34
2023-01-28T15:49:23.395Z,-3.38
2023-01-28T15:51:52.437Z,-3.42
2023-01-28T15:54:21.263Z,-3.47
2023-01-28T15:56:49.486Z,-3.51
2023-01-28T15:59:28.184Z,-3.54
2023-01-28T16:02:18.218Z,-3.58
2023-01-28T16:05:08.453Z,-3.61
2023-01-28T16:07:44.883Z,-3.63
2023-01-28T16:10:26.295Z,-3.65
2023-01-28T16:13:02.408Z,-3.68
2023-01-28T16:15:30.639Z,-3.71
2023-01-28T16:17:58.854Z,-3.74
2023-01-28T16:20:29.067Z,-3.76
2023-01-28T16:22:59.121Z,-3.77
2023-01-28T16:25:33.173Z,-3.79
2023-01-28T16:28:02.575Z,-3.81
2023-01-28T16:30:30.969Z,-3.83
2023-01-28T16:33:03.438Z,-3.84
2023-01-28T16:35:56.321Z,-3.85
2023-01-28T16:38:23.623Z,-3.86
2023-01-28T16:40:52.951Z,-3.88
2023-01-28T16:43:21.436Z,-3.90
2023-01-28T16:45:50.125Z,-3.91
2023-01-28T16:48:22.821Z,-3.92
2023-01-28T16:50:51.051Z,-3.94
2023-01-28T16:53:29.093Z,-3.95
2023-01-28T16:55:57.566Z,-3.95
2023-01-28T16:58:26.565Z,-3.95
2023-01-28T17:00:55.327Z,-3.95
2023-01-28T17:03:24.092Z,-3.96
2023-01-28T17:05:52.523Z,-3.96
2023-01-28T17:08:23.603Z,-3.97
2023-01-28T17:10:56.154Z,-3.97
2023-01-28T17:13:24.535Z,-3.92
2023-01-28T17:15:53.193Z,-3.86
2023-01-28T17:18:21.941Z,-3.81
2023-01-28T17:20:50.817Z,-3.76
2023-01-28T17:23:23.293Z,-3.69
2023-01-28T17:25:51.961Z,-3.62
2023-01-28T17:28:20.458Z,-3.52
2023-01-28T17:30:48.851Z,-3.40
2023-01-28T17:33:17.667Z,-3.29
2023-01-28T17:35:48.149Z,-3.17
2023-01-28T17:38:16.812Z,-3.04
2023-01-28T17:40:45.263Z,-2.91
2023-01-28T17:43:13.724Z,-2.84
2023-01-28T17:45:44.373Z,-2.77
2023-01-28T17:48:13.425Z,-2.73
2023-01-28T17:50:41.813Z,-2.70
2023-01-28T17:53:10.494Z,-2.66
2023-01-28T17:55:41.104Z,-2.65
2023-01-28T17:58:09.517Z,-2.64
2023-01-28T18:00:38.817Z,-2.64
2023-01-28T18:03:12.088Z,-2.63
2023-01-28T18:05:41.325Z,-2.61
2023-01-28T18:08:10.235Z,-2.61
2023-01-28T18:10:42.982Z,-2.62
2023-01-28T18:13:12.495Z,-2.59
2023-01-28T18:15:43.985Z,-2.56
2023-01-28T18:18:12.748Z,-2.57
2023-01-28T18:20:41.856Z,-2.60
2023-01-28T18:23:10.257Z,-2.64
2023-01-28T18:25:41.811Z,-2.66
2023-01-28T18:28:11.173Z,-2.68
2023-01-28T18:30:40.050Z,-2.72
2023-01-28T18:33:09.469Z,-2.77
2023-01-28T18:35:58.117Z,-2.82
2023-01-28T18:38:27.632Z,-2.83
2023-01-28T18:40:56.727Z,-2.84
2023-01-28T18:43:25.308Z,-2.87
2023-01-28T18:45:54.347Z,-2.90
2023-01-28T18:48:23.397Z,-2.96
2023-01-28T18:50:52.726Z,-3.00
2023-01-28T18:53:22.130Z,-3.05
2023-01-28T18:55:50.593Z,-3.08
2023-01-28T18:58:19.761Z,-3.09
2023-01-28T19:00:52.118Z,-3.08
2023-01-28T19:03:20.550Z,-3.10
2023-01-28T19:05:48.772Z,-3.09
2023-01-28T19:08:17.834Z,-3.04
2023-01-28T19:11:11.347Z,-2.99
2023-01-28T19:13:39.848Z,-2.93
2023-01-28T19:16:08.471Z,-2.87
2023-01-28T19:18:38.602Z,-2.83
2023-01-28T19:21:07.166Z,-2.80
2023-01-28T19:23:49.210Z,-2.74
2023-01-28T19:26:21.460Z,-2.68
2023-01-28T19:28:49.818Z,-2.60
2023-01-28T19:31:19.749Z,-2.52
2023-01-28T19:33:48.352Z,-2.45
2023-01-28T19:36:16.807Z,-2.37
2023-01-28T19:38:45.708Z,-2.31
2023-01-28T19:41:17.325Z,-2.26
2023-01-28T19:43:46.082Z,-2.22
2023-01-28T19:46:17.079Z,-2.20
2023-01-28T19:48:45.672Z,-2.18
2023-01-28T19:51:17.748Z,-2.18
2023-01-28T19:53:46.296Z,-2.16
2023-01-28T19:56:15.422Z,-2.12
2023-01-28T19:58:43.939Z,-2.09
2023-01-28T20:01:27.239Z,-2.07
2023-01-28T20:03:59.420Z,-2.06
2023-01-28T20:06:30.115Z,-2.05
2023-01-28T20:09:04.557Z,-2.05
2023-01-28T20:11:34.371Z,-2.06
2023-01-28T20:14:02.855Z,-2.06
2023-01-28T20:16:39.632Z,-2.05
2023-01-28T20:19:12.928Z,-2.05
2023-01-28T20:21:41.842Z,-2.05
2023-01-28T20:24:12.335Z,-2.06
2023-01-28T20:26:42.076Z,-2.06
2023-01-28T20:29:15.566Z,-2.07
2023-01-28T20:31:57.444Z,-2.10
2023-01-28T20:34:34.182Z,-2.15
2023-01-28T20:37:03.752Z,-2.21
2023-01-28T20:39:39.957Z,-2.25
2023-01-28T20:42:29.397Z,-2.30
2023-01-28T20:45:18.603Z,-2.35
2023-01-28T20:47:47.019Z,-2.41
2023-01-28T20:50:16.742Z,-2.49
2023-01-28T20:52:54.545Z,-2.57
2023-01-28T20:55:44.844Z,-2.66
2023-01-28T20:58:19.674Z,-2.76
2023-01-28T21:00:48.055Z,-2.85
2023-01-28T21:03:16.433Z,-2.93
2023-01-28T21:05:45.639Z,-3.01
2023-01-28T21:08:14.931Z,-3.11
2023-01-28T21:10:43.070Z,-3.20
2023-01-28T21:13:12.636Z,-3.27
2023-01-28T21:15:41.100Z,-3.32
2023-01-28T21:18:10.304Z,-3.37
2023-01-28T21:20:38.580Z,-3.43
2023-01-28T21:23:06.958Z,-3.49
2023-01-28T21:25:35.648Z,-3.57
2023-01-28T21:28:04.954Z,-3.65
2023-01-28T21:30:33.278Z,-3.72
2023-01-28T21:33:06.535Z,-3.78
2023-01-28T21:35:39.027Z,-3.84
2023-01-28T21:38:07.464Z,-3.89
2023-01-28T21:40:36.988Z,-3.93
2023-01-28T21:43:05.175Z,-3.95
2023-01-28T21:45:33.669Z,-3.96
